sensor_id;sensor_type;location;lat;lon;timestamp;temperature;humidity
55721;DHT22;41626;53.098;6.168;2023-04-24T00:01:47;11.10;99.90
55721;DHT22;41626;53.098;6.168;2023-04-24T00:04:13;11.10;99.90
55721;DHT22;41626;53.098;6.168;2023-04-24T00:06:42;11.20;99.90
55721;DHT22;41626;53.098;6.168;2023-04-24T00:09:09;11.00;99.90
55721;DHT22;41626;53.098;6.168;2023-04-24T00:11:36;11.10;99.90
55721;DHT22;41626;53.098;6.168;2023-04-24T00:14:02;11.00;99.90
55721;DHT22;41626;53.098;6.168;2023-04-24T00:16:28;11.00;99.90
55721;DHT22;41626;53.098;6.168;2023-04-24T00:18:54;10.90;99.90
55721;DHT22;41626;53.098;6.168;2023-04-24T00:21:19;11.00;99.90
55721;DHT22;41626;53.098;6.168;2023-04-24T00:23:46;10.80;99.90
55721;DHT22;41626;53.098;6.168;2023-04-24T00:26:12;11.00;99.90
55721;DHT22;41626;53.098;6.168;2023-04-24T00:28:37;11.00;99.90
55721;DHT22;41626;53.098;6.168;2023-04-24T00:31:03;11.00;99.90
55721;DHT22;41626;53.098;6.168;2023-04-24T00:33:29;10.80;99.90
55721;DHT22;41626;53.098;6.168;2023-04-24T00:35:54;10.90;99.90
55721;DHT22;41626;53.098;6.168;2023-04-24T00:38:20;10.90;99.90
55721;DHT22;41626;53.098;6.168;2023-04-24T00:40:47;10.70;99.90
55721;DHT22;41626;53.098;6.168;2023-04-24T00:43:15;10.70;99.90
55721;DHT22;41626;53.098;6.168;2023-04-24T00:45:41;10.80;99.90
55721;DHT22;41626;53.098;6.168;2023-04-24T00:48:07;10.60;99.90
55721;DHT22;41626;53.098;6.168;2023-04-24T00:50:35;10.80;99.90
55721;DHT22;41626;53.098;6.168;2023-04-24T00:53:01;10.80;99.90
55721;DHT22;41626;53.098;6.168;2023-04-24T00:55:26;10.70;99.90
55721;DHT22;41626;53.098;6.168;2023-04-24T00:57:52;10.70;99.90
55721;DHT22;41626;53.098;6.168;2023-04-24T01:00:18;10.70;99.90
55721;DHT22;41626;53.098;6.168;2023-04-24T01:02:44;10.70;99.90
55721;DHT22;41626;53.098;6.168;2023-04-24T01:05:12;10.60;99.90
55721;DHT22;41626;53.098;6.168;2023-04-24T01:07:39;10.80;99.90
55721;DHT22;41626;53.098;6.168;2023-04-24T01:10:07;10.60;99.90
55721;DHT22;41626;53.098;6.168;2023-04-24T01:12:33;10.70;99.90
55721;DHT22;41626;53.098;6.168;2023-04-24T01:14:59;10.70;99.90
55721;DHT22;41626;53.098;6.168;2023-04-24T01:17:25;10.80;99.90
55721;DHT22;41626;53.098;6.168;2023-04-24T01:19:51;10.60;99.90
55721;DHT22;41626;53.098;6.168;2023-04-24T01:22:22;10.70;99.90
55721;DHT22;41626;53.098;6.168;2023-04-24T01:24:48;10.60;99.90
55721;DHT22;41626;53.098;6.168;2023-04-24T01:27:14;10.70;99.90
55721;DHT22;41626;53.098;6.168;2023-04-24T01:29:40;10.70;99.90
55721;DHT22;41626;53.098;6.168;2023-04-24T01:32:06;10.70;99.90
55721;DHT22;41626;53.098;6.168;2023-04-24T01:34:33;10.70;99.90
55721;DHT22;41626;53.098;6.168;2023-04-24T01:36:59;10.70;99.90
55721;DHT22;41626;53.098;6.168;2023-04-24T01:39:26;10.80;99.90
55721;DHT22;41626;53.098;6.168;2023-04-24T01:41:54;10.80;99.90
55721;DHT22;41626;53.098;6.168;2023-04-24T01:44:20;10.70;99.90
55721;DHT22;41626;53.098;6.168;2023-04-24T01:46:46;10.80;99.90
55721;DHT22;41626;53.098;6.168;2023-04-24T01:49:12;10.70;99.90
55721;DHT22;41626;53.098;6.168;2023-04-24T01:51:37;10.80;99.90
55721;DHT22;41626;53.098;6.168;2023-04-24T01:54:04;10.70;99.90
55721;DHT22;41626;53.098;6.168;2023-04-24T01:56:33;10.80;99.90
55721;DHT22;41626;53.098;6.168;2023-04-24T01:59:00;10.80;99.90
55721;DHT22;41626;53.098;6.168;2023-04-24T02:01:26;10.80;99.90
55721;DHT22;41626;53.098;6.168;2023-04-24T02:03:51;10.80;99.90
55721;DHT22;41626;53.098;6.168;2023-04-24T02:06:17;10.80;99.90
55721;DHT22;41626;53.098;6.168;2023-04-24T02:08:43;10.90;99.90
55721;DHT22;41626;53.098;6.168;2023-04-24T02:11:09;10.70;99.90
55721;DHT22;41626;53.098;6.168;2023-04-24T02:13:35;10.80;99.90
55721;DHT22;41626;53.098;6.168;2023-04-24T02:16:01;10.70;99.90
55721;DHT22;41626;53.098;6.168;2023-04-24T02:18:26;10.70;99.90
55721;DHT22;41626;53.098;6.168;2023-04-24T02:20:52;10.80;99.90
55721;DHT22;41626;53.098;6.168;2023-04-24T02:23:18;10.80;99.90
55721;DHT22;41626;53.098;6.168;2023-04-24T02:25:43;10.80;99.90
55721;DHT22;41626;53.098;6.168;2023-04-24T02:28:09;10.60;99.90
55721;DHT22;41626;53.098;6.168;2023-04-24T02:30:35;10.90;99.90
55721;DHT22;41626;53.098;6.168;2023-04-24T02:33:00;10.70;99.90
55721;DHT22;41626;53.098;6.168;2023-04-24T02:35:26;10.60;99.90
55721;DHT22;41626;53.098;6.168;2023-04-24T02:37:52;10.60;99.90
55721;DHT22;41626;53.098;6.168;2023-04-24T02:40:17;10.70;99.90
55721;DHT22;41626;53.098;6.168;2023-04-24T02:42:43;10.70;99.90
55721;DHT22;41626;53.098;6.168;2023-04-24T02:45:09;10.70;99.90
55721;DHT22;41626;53.098;6.168;2023-04-24T02:47:35;10.60;99.90
55721;DHT22;41626;53.098;6.168;2023-04-24T02:50:02;10.70;99.90
55721;DHT22;41626;53.098;6.168;2023-04-24T02:52:28;10.70;99.90
55721;DHT22;41626;53.098;6.168;2023-04-24T02:54:54;10.60;99.90
55721;DHT22;41626;53.098;6.168;2023-04-24T02:57:19;10.80;99.90
55721;DHT22;41626;53.098;6.168;2023-04-24T02:59:45;10.80;99.90
55721;DHT22;41626;53.098;6.168;2023-04-24T03:02:10;10.60;99.90
55721;DHT22;41626;53.098;6.168;2023-04-24T03:04:36;10.60;99.90
55721;DHT22;41626;53.098;6.168;2023-04-24T03:07:02;10.80;99.90
55721;DHT22;41626;53.098;6.168;2023-04-24T03:09:27;10.60;99.90
55721;DHT22;41626;53.098;6.168;2023-04-24T03:11:53;10.80;99.90
55721;DHT22;41626;53.098;6.168;2023-04-24T03:14:19;10.70;99.90
55721;DHT22;41626;53.098;6.168;2023-04-24T03:16:44;10.70;99.90
55721;DHT22;41626;53.098;6.168;2023-04-24T03:19:10;10.70;99.90
55721;DHT22;41626;53.098;6.168;2023-04-24T03:21:36;10.60;99.90
55721;DHT22;41626;53.098;6.168;2023-04-24T03:24:09;10.60;99.90
55721;DHT22;41626;53.098;6.168;2023-04-24T03:26:35;10.60;99.90
55721;DHT22;41626;53.098;6.168;2023-04-24T03:29:01;10.70;99.90
55721;DHT22;41626;53.098;6.168;2023-04-24T03:31:26;10.70;99.90
55721;DHT22;41626;53.098;6.168;2023-04-24T03:33:52;10.70;99.90
55721;DHT22;41626;53.098;6.168;2023-04-24T03:36:18;10.60;99.90
55721;DHT22;41626;53.098;6.168;2023-04-24T03:38:44;10.70;99.90
55721;DHT22;41626;53.098;6.168;2023-04-24T03:41:11;10.70;99.90
55721;DHT22;41626;53.098;6.168;2023-04-24T03:43:37;10.60;99.90
55721;DHT22;41626;53.098;6.168;2023-04-24T03:46:03;10.60;99.90
55721;DHT22;41626;53.098;6.168;2023-04-24T03:48:29;10.70;99.90
55721;DHT22;41626;53.098;6.168;2023-04-24T03:50:55;10.80;99.90
55721;DHT22;41626;53.098;6.168;2023-04-24T03:53:21;10.70;99.90
55721;DHT22;41626;53.098;6.168;2023-04-24T03:55:47;10.70;99.90
55721;DHT22;41626;53.098;6.168;2023-04-24T03:58:12;10.70;99.90
55721;DHT22;41626;53.098;6.168;2023-04-24T04:00:40;10.80;99.90
55721;DHT22;41626;53.098;6.168;2023-04-24T04:03:06;10.80;99.90
55721;DHT22;41626;53.098;6.168;2023-04-24T04:05:32;10.50;99.90
55721;DHT22;41626;53.098;6.168;2023-04-24T04:07:57;10.60;99.90
55721;DHT22;41626;53.098;6.168;2023-04-24T04:10:23;10.50;99.90
55721;DHT22;41626;53.098;6.168;2023-04-24T04:12:49;10.70;99.90
55721;DHT22;41626;53.098;6.168;2023-04-24T04:15:14;10.80;99.90
55721;DHT22;41626;53.098;6.168;2023-04-24T04:17:40;10.60;99.90
55721;DHT22;41626;53.098;6.168;2023-04-24T04:20:06;10.70;99.90
55721;DHT22;41626;53.098;6.168;2023-04-24T04:22:35;10.60;99.90
55721;DHT22;41626;53.098;6.168;2023-04-24T04:25:01;10.60;99.90
55721;DHT22;41626;53.098;6.168;2023-04-24T04:27:27;10.50;99.90
55721;DHT22;41626;53.098;6.168;2023-04-24T04:29:54;10.60;99.90
55721;DHT22;41626;53.098;6.168;2023-04-24T04:32:22;10.60;99.90
55721;DHT22;41626;53.098;6.168;2023-04-24T04:34:47;10.50;99.90
55721;DHT22;41626;53.098;6.168;2023-04-24T04:37:14;10.60;99.90
55721;DHT22;41626;53.098;6.168;2023-04-24T04:39:40;10.50;99.90
55721;DHT22;41626;53.098;6.168;2023-04-24T04:42:06;10.50;99.90
55721;DHT22;41626;53.098;6.168;2023-04-24T04:44:32;10.40;99.90
55721;DHT22;41626;53.098;6.168;2023-04-24T04:46:58;10.50;99.90
55721;DHT22;41626;53.098;6.168;2023-04-24T04:49:25;10.50;99.90
55721;DHT22;41626;53.098;6.168;2023-04-24T04:51:53;10.50;99.90
55721;DHT22;41626;53.098;6.168;2023-04-24T04:54:19;10.40;99.90
55721;DHT22;41626;53.098;6.168;2023-04-24T04:56:45;10.50;99.90
55721;DHT22;41626;53.098;6.168;2023-04-24T04:59:10;10.30;99.90
55721;DHT22;41626;53.098;6.168;2023-04-24T05:01:38;10.40;99.90
55721;DHT22;41626;53.098;6.168;2023-04-24T05:04:03;10.30;99.90
55721;DHT22;41626;53.098;6.168;2023-04-24T05:06:29;10.40;99.90
55721;DHT22;41626;53.098;6.168;2023-04-24T05:08:56;10.30;99.90
55721;DHT22;41626;53.098;6.168;2023-04-24T05:11:23;10.20;99.90
55721;DHT22;41626;53.098;6.168;2023-04-24T05:13:48;10.30;99.90
55721;DHT22;41626;53.098;6.168;2023-04-24T05:16:14;10.20;99.90
55721;DHT22;41626;53.098;6.168;2023-04-24T05:18:40;10.20;99.90
55721;DHT22;41626;53.098;6.168;2023-04-24T05:21:06;10.30;99.90
55721;DHT22;41626;53.098;6.168;2023-04-24T05:23:31;10.30;99.90
55721;DHT22;41626;53.098;6.168;2023-04-24T05:25:57;10.20;99.90
55721;DHT22;41626;53.098;6.168;2023-04-24T05:28:23;10.30;99.90
55721;DHT22;41626;53.098;6.168;2023-04-24T05:30:48;10.30;99.90
55721;DHT22;41626;53.098;6.168;2023-04-24T05:33:15;10.10;99.90
55721;DHT22;41626;53.098;6.168;2023-04-24T05:35:41;10.20;99.90
55721;DHT22;41626;53.098;6.168;2023-04-24T05:38:13;10.20;99.90
55721;DHT22;41626;53.098;6.168;2023-04-24T05:40:39;10.10;99.90
55721;DHT22;41626;53.098;6.168;2023-04-24T05:43:04;10.20;99.90
55721;DHT22;41626;53.098;6.168;2023-04-24T05:45:30;10.30;99.90
55721;DHT22;41626;53.098;6.168;2023-04-24T05:47:57;10.20;99.90
55721;DHT22;41626;53.098;6.168;2023-04-24T05:50:22;10.10;99.90
55721;DHT22;41626;53.098;6.168;2023-04-24T05:52:48;10.20;99.90
55721;DHT22;41626;53.098;6.168;2023-04-24T05:55:14;10.20;99.90
55721;DHT22;41626;53.098;6.168;2023-04-24T05:57:42;10.10;99.90
55721;DHT22;41626;53.098;6.168;2023-04-24T06:00:09;10.30;99.90
55721;DHT22;41626;53.098;6.168;2023-04-24T06:02:38;10.40;99.90
55721;DHT22;41626;53.098;6.168;2023-04-24T06:05:04;10.20;99.90
55721;DHT22;41626;53.098;6.168;2023-04-24T06:07:31;10.30;99.90
55721;DHT22;41626;53.098;6.168;2023-04-24T06:09:56;10.30;99.90
55721;DHT22;41626;53.098;6.168;2023-04-24T06:12:22;10.40;99.90
55721;DHT22;41626;53.098;6.168;2023-04-24T06:14:48;10.30;99.90
55721;DHT22;41626;53.098;6.168;2023-04-24T06:17:16;10.30;99.90
55721;DHT22;41626;53.098;6.168;2023-04-24T06:19:42;10.20;99.90
55721;DHT22;41626;53.098;6.168;2023-04-24T06:22:07;10.10;99.90
55721;DHT22;41626;53.098;6.168;2023-04-24T06:24:34;10.20;99.90
55721;DHT22;41626;53.098;6.168;2023-04-24T06:26:59;10.10;99.90
55721;DHT22;41626;53.098;6.168;2023-04-24T06:29:25;10.10;99.90
55721;DHT22;41626;53.098;6.168;2023-04-24T06:31:51;10.10;99.90
55721;DHT22;41626;53.098;6.168;2023-04-24T06:34:17;10.30;99.90
55721;DHT22;41626;53.098;6.168;2023-04-24T06:36:42;10.20;99.90
55721;DHT22;41626;53.098;6.168;2023-04-24T06:39:09;10.20;99.90
55721;DHT22;41626;53.098;6.168;2023-04-24T06:41:34;10.10;99.90
55721;DHT22;41626;53.098;6.168;2023-04-24T06:44:00;10.00;99.90
55721;DHT22;41626;53.098;6.168;2023-04-24T06:46:26;10.00;99.90
55721;DHT22;41626;53.098;6.168;2023-04-24T06:48:53;10.00;99.90
55721;DHT22;41626;53.098;6.168;2023-04-24T06:51:23;10.00;99.90
55721;DHT22;41626;53.098;6.168;2023-04-24T06:53:49;10.00;99.90
55721;DHT22;41626;53.098;6.168;2023-04-24T06:56:15;9.90;99.90
55721;DHT22;41626;53.098;6.168;2023-04-24T06:58:41;10.00;99.90
55721;DHT22;41626;53.098;6.168;2023-04-24T07:01:07;9.80;99.90
55721;DHT22;41626;53.098;6.168;2023-04-24T07:03:32;9.80;99.90
55721;DHT22;41626;53.098;6.168;2023-04-24T07:05:58;10.00;99.90
55721;DHT22;41626;53.098;6.168;2023-04-24T07:08:24;9.90;99.90
55721;DHT22;41626;53.098;6.168;2023-04-24T07:10:50;9.80;99.90
55721;DHT22;41626;53.098;6.168;2023-04-24T07:13:16;9.80;99.90
55721;DHT22;41626;53.098;6.168;2023-04-24T07:15:43;9.90;99.90
55721;DHT22;41626;53.098;6.168;2023-04-24T07:18:09;9.70;99.90
55721;DHT22;41626;53.098;6.168;2023-04-24T07:20:34;9.80;99.90
55721;DHT22;41626;53.098;6.168;2023-04-24T07:23:00;9.70;99.90
55721;DHT22;41626;53.098;6.168;2023-04-24T07:25:26;9.70;99.90
55721;DHT22;41626;53.098;6.168;2023-04-24T07:27:52;9.60;99.90
55721;DHT22;41626;53.098;6.168;2023-04-24T07:30:18;9.60;99.90
55721;DHT22;41626;53.098;6.168;2023-04-24T07:32:44;9.70;99.90
55721;DHT22;41626;53.098;6.168;2023-04-24T07:35:09;9.70;99.90
55721;DHT22;41626;53.098;6.168;2023-04-24T07:37:36;9.60;99.90
55721;DHT22;41626;53.098;6.168;2023-04-24T07:40:01;9.50;99.90
55721;DHT22;41626;53.098;6.168;2023-04-24T07:42:28;9.60;99.90
55721;DHT22;41626;53.098;6.168;2023-04-24T07:44:55;9.70;99.90
55721;DHT22;41626;53.098;6.168;2023-04-24T07:47:21;9.60;99.90
55721;DHT22;41626;53.098;6.168;2023-04-24T07:49:47;9.60;99.90
55721;DHT22;41626;53.098;6.168;2023-04-24T07:52:13;9.60;99.90
55721;DHT22;41626;53.098;6.168;2023-04-24T07:54:38;9.40;99.90
55721;DHT22;41626;53.098;6.168;2023-04-24T07:57:04;9.50;99.90
55721;DHT22;41626;53.098;6.168;2023-04-24T07:59:32;9.60;99.90
55721;DHT22;41626;53.098;6.168;2023-04-24T08:01:57;9.70;99.90
55721;DHT22;41626;53.098;6.168;2023-04-24T08:04:23;9.70;99.90
55721;DHT22;41626;53.098;6.168;2023-04-24T08:06:49;9.50;99.90
55721;DHT22;41626;53.098;6.168;2023-04-24T08:09:14;9.40;99.90
55721;DHT22;41626;53.098;6.168;2023-04-24T08:11:40;9.40;99.90
55721;DHT22;41626;53.098;6.168;2023-04-24T08:14:06;9.60;99.90
55721;DHT22;41626;53.098;6.168;2023-04-24T08:16:32;9.50;99.90
55721;DHT22;41626;53.098;6.168;2023-04-24T08:18:58;9.40;99.90
55721;DHT22;41626;53.098;6.168;2023-04-24T08:21:24;9.40;99.90
55721;DHT22;41626;53.098;6.168;2023-04-24T08:23:52;9.60;99.90
55721;DHT22;41626;53.098;6.168;2023-04-24T08:26:18;9.60;99.90
55721;DHT22;41626;53.098;6.168;2023-04-24T08:28:44;9.60;99.90
55721;DHT22;41626;53.098;6.168;2023-04-24T08:31:09;9.60;99.90
55721;DHT22;41626;53.098;6.168;2023-04-24T08:33:35;9.70;99.90
55721;DHT22;41626;53.098;6.168;2023-04-24T08:36:05;9.70;99.90
55721;DHT22;41626;53.098;6.168;2023-04-24T08:38:31;9.80;99.90
55721;DHT22;41626;53.098;6.168;2023-04-24T08:40:58;9.90;99.90
55721;DHT22;41626;53.098;6.168;2023-04-24T08:43:25;9.70;99.90
55721;DHT22;41626;53.098;6.168;2023-04-24T08:45:52;9.60;99.90
55721;DHT22;41626;53.098;6.168;2023-04-24T08:48:18;9.80;99.90
55721;DHT22;41626;53.098;6.168;2023-04-24T08:50:44;9.80;99.90
55721;DHT22;41626;53.098;6.168;2023-04-24T08:53:10;9.90;99.90
55721;DHT22;41626;53.098;6.168;2023-04-24T08:55:37;9.90;99.90
55721;DHT22;41626;53.098;6.168;2023-04-24T08:58:03;10.00;99.90
55721;DHT22;41626;53.098;6.168;2023-04-24T09:00:30;10.10;99.90
55721;DHT22;41626;53.098;6.168;2023-04-24T09:02:56;10.00;99.90
55721;DHT22;41626;53.098;6.168;2023-04-24T09:05:22;9.90;99.90
55721;DHT22;41626;53.098;6.168;2023-04-24T09:07:55;9.90;99.90
55721;DHT22;41626;53.098;6.168;2023-04-24T09:10:23;9.80;99.90
55721;DHT22;41626;53.098;6.168;2023-04-24T09:12:51;9.80;99.90
55721;DHT22;41626;53.098;6.168;2023-04-24T09:15:18;9.90;99.90
55721;DHT22;41626;53.098;6.168;2023-04-24T09:17:44;9.80;99.90
55721;DHT22;41626;53.098;6.168;2023-04-24T09:20:10;9.90;99.90
55721;DHT22;41626;53.098;6.168;2023-04-24T09:22:36;9.90;99.90
55721;DHT22;41626;53.098;6.168;2023-04-24T09:25:04;10.00;99.90
55721;DHT22;41626;53.098;6.168;2023-04-24T09:27:31;10.00;99.90
55721;DHT22;41626;53.098;6.168;2023-04-24T09:29:57;10.10;99.90
55721;DHT22;41626;53.098;6.168;2023-04-24T09:32:24;10.10;99.90
55721;DHT22;41626;53.098;6.168;2023-04-24T09:35:08;10.30;99.90
55721;DHT22;41626;53.098;6.168;2023-04-24T09:37:39;10.30;99.90
55721;DHT22;41626;53.098;6.168;2023-04-24T09:40:20;10.30;99.90
55721;DHT22;41626;53.098;6.168;2023-04-24T09:42:56;10.30;99.90
55721;DHT22;41626;53.098;6.168;2023-04-24T09:45:43;10.50;99.90
55721;DHT22;41626;53.098;6.168;2023-04-24T09:48:09;10.70;99.90
55721;DHT22;41626;53.098;6.168;2023-04-24T09:50:35;10.80;99.90
55721;DHT22;41626;53.098;6.168;2023-04-24T09:53:02;10.80;99.90
55721;DHT22;41626;53.098;6.168;2023-04-24T09:55:28;10.70;99.90
55721;DHT22;41626;53.098;6.168;2023-04-24T09:57:59;10.70;99.90
55721;DHT22;41626;53.098;6.168;2023-04-24T10:00:27;11.10;99.90
55721;DHT22;41626;53.098;6.168;2023-04-24T10:02:58;10.90;99.90
55721;DHT22;41626;53.098;6.168;2023-04-24T10:05:26;11.00;99.90
55721;DHT22;41626;53.098;6.168;2023-04-24T10:07:56;10.80;99.90
55721;DHT22;41626;53.098;6.168;2023-04-24T10:10:23;10.50;99.90
55721;DHT22;41626;53.098;6.168;2023-04-24T10:12:49;10.60;99.90
55721;DHT22;41626;53.098;6.168;2023-04-24T10:15:16;10.60;99.90
55721;DHT22;41626;53.098;6.168;2023-04-24T10:17:50;10.70;99.90
55721;DHT22;41626;53.098;6.168;2023-04-24T10:20:23;10.80;99.90
55721;DHT22;41626;53.098;6.168;2023-04-24T10:22:51;10.70;99.90
55721;DHT22;41626;53.098;6.168;2023-04-24T10:25:23;10.60;99.90
55721;DHT22;41626;53.098;6.168;2023-04-24T10:27:50;10.40;99.90
55721;DHT22;41626;53.098;6.168;2023-04-24T10:30:17;10.40;99.90
55721;DHT22;41626;53.098;6.168;2023-04-24T10:32:44;10.50;99.90
55721;DHT22;41626;53.098;6.168;2023-04-24T10:35:12;10.50;99.90
55721;DHT22;41626;53.098;6.168;2023-04-24T10:37:45;10.50;99.90
55721;DHT22;41626;53.098;6.168;2023-04-24T10:40:17;10.30;99.90
55721;DHT22;41626;53.098;6.168;2023-04-24T10:42:47;10.40;99.90
55721;DHT22;41626;53.098;6.168;2023-04-24T10:45:17;10.30;99.90
55721;DHT22;41626;53.098;6.168;2023-04-24T10:47:53;10.30;99.90
55721;DHT22;41626;53.098;6.168;2023-04-24T10:50:21;10.10;99.90
55721;DHT22;41626;53.098;6.168;2023-04-24T10:52:48;10.10;99.90
55721;DHT22;41626;53.098;6.168;2023-04-24T10:55:16;10.30;99.90
55721;DHT22;41626;53.098;6.168;2023-04-24T10:58:23;10.50;99.90
55721;DHT22;41626;53.098;6.168;2023-04-24T11:01:00;10.50;99.90
55721;DHT22;41626;53.098;6.168;2023-04-24T11:03:28;10.50;99.90
55721;DHT22;41626;53.098;6.168;2023-04-24T11:10:59;11.20;99.90
55721;DHT22;41626;53.098;6.168;2023-04-24T11:13:27;11.20;99.90
55721;DHT22;41626;53.098;6.168;2023-04-24T11:16:20;11.00;99.90
55721;DHT22;41626;53.098;6.168;2023-04-24T11:18:51;10.70;99.90
55721;DHT22;41626;53.098;6.168;2023-04-24T11:21:20;10.60;99.90
55721;DHT22;41626;53.098;6.168;2023-04-24T11:23:47;10.40;99.90
55721;DHT22;41626;53.098;6.168;2023-04-24T11:26:18;10.10;99.90
55721;DHT22;41626;53.098;6.168;2023-04-24T11:28:49;9.90;99.90
55721;DHT22;41626;53.098;6.168;2023-04-24T11:31:34;9.70;99.90
55721;DHT22;41626;53.098;6.168;2023-04-24T11:34:11;9.40;99.90
55721;DHT22;41626;53.098;6.168;2023-04-24T11:36:37;9.40;99.90
55721;DHT22;41626;53.098;6.168;2023-04-24T11:39:03;9.40;99.90
55721;DHT22;41626;53.098;6.168;2023-04-24T11:41:29;9.40;99.90
55721;DHT22;41626;53.098;6.168;2023-04-24T11:43:56;9.40;99.90
55721;DHT22;41626;53.098;6.168;2023-04-24T11:46:22;10.00;99.90
55721;DHT22;41626;53.098;6.168;2023-04-24T11:48:48;9.80;99.90
55721;DHT22;41626;53.098;6.168;2023-04-24T11:51:14;9.80;99.90
55721;DHT22;41626;53.098;6.168;2023-04-24T11:53:40;9.80;99.90
55721;DHT22;41626;53.098;6.168;2023-04-24T11:56:09;9.90;99.90
55721;DHT22;41626;53.098;6.168;2023-04-24T11:58:39;9.80;99.90
55721;DHT22;41626;53.098;6.168;2023-04-24T12:01:05;10.10;99.90
55721;DHT22;41626;53.098;6.168;2023-04-24T12:03:30;10.10;99.90
55721;DHT22;41626;53.098;6.168;2023-04-24T12:06:11;10.10;99.90
55721;DHT22;41626;53.098;6.168;2023-04-24T12:08:37;10.30;99.90
55721;DHT22;41626;53.098;6.168;2023-04-24T12:11:05;10.30;99.90
55721;DHT22;41626;53.098;6.168;2023-04-24T12:13:33;10.30;99.90
55721;DHT22;41626;53.098;6.168;2023-04-24T12:15:59;10.20;99.90
55721;DHT22;41626;53.098;6.168;2023-04-24T12:18:26;10.30;99.90
55721;DHT22;41626;53.098;6.168;2023-04-24T12:20:52;10.30;99.90
55721;DHT22;41626;53.098;6.168;2023-04-24T12:23:33;10.30;99.90
55721;DHT22;41626;53.098;6.168;2023-04-24T12:26:05;10.40;99.90
55721;DHT22;41626;53.098;6.168;2023-04-24T12:28:35;10.40;99.90
55721;DHT22;41626;53.098;6.168;2023-04-24T12:31:02;10.20;99.90
55721;DHT22;41626;53.098;6.168;2023-04-24T12:33:27;10.50;99.90
55721;DHT22;41626;53.098;6.168;2023-04-24T12:35:54;10.80;99.90
55721;DHT22;41626;53.098;6.168;2023-04-24T12:38:25;10.80;99.90
55721;DHT22;41626;53.098;6.168;2023-04-24T12:41:10;10.60;99.90
55721;DHT22;41626;53.098;6.168;2023-04-24T12:43:36;10.40;99.90
55721;DHT22;41626;53.098;6.168;2023-04-24T12:46:02;10.50;99.90
55721;DHT22;41626;53.098;6.168;2023-04-24T12:48:28;10.40;99.90
55721;DHT22;41626;53.098;6.168;2023-04-24T12:50:54;10.50;99.90
55721;DHT22;41626;53.098;6.168;2023-04-24T12:53:22;10.50;99.90
55721;DHT22;41626;53.098;6.168;2023-04-24T12:55:47;10.10;99.90
55721;DHT22;41626;53.098;6.168;2023-04-24T12:58:21;10.00;99.90
55721;DHT22;41626;53.098;6.168;2023-04-24T13:00:47;10.10;99.90
55721;DHT22;41626;53.098;6.168;2023-04-24T13:03:13;10.10;99.90
55721;DHT22;41626;53.098;6.168;2023-04-24T13:05:39;10.10;99.90
55721;DHT22;41626;53.098;6.168;2023-04-24T13:08:05;10.20;99.90
55721;DHT22;41626;53.098;6.168;2023-04-24T13:10:31;10.20;99.90
55721;DHT22;41626;53.098;6.168;2023-04-24T13:12:57;10.30;99.90
55721;DHT22;41626;53.098;6.168;2023-04-24T13:15:23;10.50;99.90
55721;DHT22;41626;53.098;6.168;2023-04-24T13:17:50;10.50;99.90
55721;DHT22;41626;53.098;6.168;2023-04-24T13:20:15;10.20;99.90
55721;DHT22;41626;53.098;6.168;2023-04-24T13:22:41;10.30;99.90
55721;DHT22;41626;53.098;6.168;2023-04-24T13:25:07;10.20;99.90
55721;DHT22;41626;53.098;6.168;2023-04-24T13:27:33;10.10;99.90
55721;DHT22;41626;53.098;6.168;2023-04-24T13:29:58;10.10;99.90
55721;DHT22;41626;53.098;6.168;2023-04-24T13:32:24;10.10;99.90
55721;DHT22;41626;53.098;6.168;2023-04-24T13:34:50;10.20;99.90
55721;DHT22;41626;53.098;6.168;2023-04-24T13:37:16;10.20;99.90
55721;DHT22;41626;53.098;6.168;2023-04-24T13:39:42;10.00;99.90
55721;DHT22;41626;53.098;6.168;2023-04-24T13:42:08;9.90;99.90
55721;DHT22;41626;53.098;6.168;2023-04-24T13:44:33;9.70;99.90
55721;DHT22;41626;53.098;6.168;2023-04-24T13:47:00;9.60;99.90
55721;DHT22;41626;53.098;6.168;2023-04-24T13:49:26;9.70;99.90
55721;DHT22;41626;53.098;6.168;2023-04-24T13:51:54;9.80;99.90
55721;DHT22;41626;53.098;6.168;2023-04-24T13:54:20;9.60;99.90
55721;DHT22;41626;53.098;6.168;2023-04-24T13:56:47;9.70;99.90
55721;DHT22;41626;53.098;6.168;2023-04-24T13:59:13;9.80;99.90
55721;DHT22;41626;53.098;6.168;2023-04-24T14:01:39;9.70;99.90
55721;DHT22;41626;53.098;6.168;2023-04-24T14:04:04;9.50;99.90
55721;DHT22;41626;53.098;6.168;2023-04-24T14:06:30;9.60;99.90
55721;DHT22;41626;53.098;6.168;2023-04-24T14:08:56;9.50;99.90
55721;DHT22;41626;53.098;6.168;2023-04-24T14:11:22;9.40;99.90
55721;DHT22;41626;53.098;6.168;2023-04-24T14:13:48;9.30;99.90
55721;DHT22;41626;53.098;6.168;2023-04-24T14:16:14;9.50;99.90
55721;DHT22;41626;53.098;6.168;2023-04-24T14:18:40;9.50;99.90
55721;DHT22;41626;53.098;6.168;2023-04-24T14:21:06;9.60;99.90
55721;DHT22;41626;53.098;6.168;2023-04-24T14:23:32;9.30;99.90
55721;DHT22;41626;53.098;6.168;2023-04-24T14:25:58;9.20;99.90
55721;DHT22;41626;53.098;6.168;2023-04-24T14:28:24;9.30;99.90
55721;DHT22;41626;53.098;6.168;2023-04-24T14:30:50;9.10;99.90
55721;DHT22;41626;53.098;6.168;2023-04-24T14:33:16;9.20;99.90
55721;DHT22;41626;53.098;6.168;2023-04-24T14:35:42;9.30;99.90
55721;DHT22;41626;53.098;6.168;2023-04-24T14:38:08;9.50;99.90
55721;DHT22;41626;53.098;6.168;2023-04-24T14:40:34;9.50;99.90
55721;DHT22;41626;53.098;6.168;2023-04-24T14:43:00;9.70;99.90
55721;DHT22;41626;53.098;6.168;2023-04-24T14:45:26;9.60;99.90
55721;DHT22;41626;53.098;6.168;2023-04-24T14:47:52;9.30;99.90
55721;DHT22;41626;53.098;6.168;2023-04-24T14:50:18;9.50;99.90
55721;DHT22;41626;53.098;6.168;2023-04-24T14:52:44;9.60;99.90
55721;DHT22;41626;53.098;6.168;2023-04-24T14:55:10;9.50;99.90
55721;DHT22;41626;53.098;6.168;2023-04-24T14:57:35;9.40;99.90
55721;DHT22;41626;53.098;6.168;2023-04-24T15:00:02;9.50;99.90
55721;DHT22;41626;53.098;6.168;2023-04-24T15:02:29;9.60;99.90
55721;DHT22;41626;53.098;6.168;2023-04-24T15:04:54;9.40;99.90
55721;DHT22;41626;53.098;6.168;2023-04-24T15:07:20;9.40;99.90
55721;DHT22;41626;53.098;6.168;2023-04-24T15:09:46;9.40;99.90
55721;DHT22;41626;53.098;6.168;2023-04-24T15:12:12;9.40;99.90
55721;DHT22;41626;53.098;6.168;2023-04-24T15:14:38;9.40;99.90
55721;DHT22;41626;53.098;6.168;2023-04-24T15:17:04;9.40;99.90
55721;DHT22;41626;53.098;6.168;2023-04-24T15:19:31;9.50;99.90
55721;DHT22;41626;53.098;6.168;2023-04-24T15:21:57;9.40;99.90
55721;DHT22;41626;53.098;6.168;2023-04-24T15:24:23;9.40;99.90
55721;DHT22;41626;53.098;6.168;2023-04-24T15:26:49;9.30;99.90
55721;DHT22;41626;53.098;6.168;2023-04-24T15:29:15;9.30;99.90
55721;DHT22;41626;53.098;6.168;2023-04-24T15:31:40;9.40;99.90
55721;DHT22;41626;53.098;6.168;2023-04-24T15:34:06;9.50;99.90
55721;DHT22;41626;53.098;6.168;2023-04-24T15:36:32;9.50;99.90
55721;DHT22;41626;53.098;6.168;2023-04-24T15:38:58;9.30;99.90